createdAt,value
2024-01-15T00:01:58.620Z,0.43
2024-01-15T00:04:25.059Z,0.37
2024-01-15T00:06:51.614Z,0.35
2024-01-15T00:09:18.344Z,0.36
2024-01-15T00:11:44.790Z,0.36
2024-01-15T00:14:11.196Z,0.30
2024-01-15T00:16:37.603Z,0.27
2024-01-15T00:19:04.578Z,0.24
2024-01-15T00:21:31.055Z,0.27
2024-01-15T00:23:57.511Z,0.24
2024-01-15T00:26:23.905Z,0.20
2024-01-15T00:28:50.354Z,0.18
2024-01-15T00:31:20.038Z,0.19
2024-01-15T00:33:47.028Z,0.17
2024-01-15T00:36:13.736Z,0.10
2024-01-15T00:38:40.211Z,0.03
2024-01-15T00:41:06.647Z,-0.01
2024-01-15T00:43:33.078Z,-0.04
2024-01-15T00:45:59.476Z,-0.03
2024-01-15T00:48:26.032Z,-0.04
2024-01-15T00:50:52.692Z,-0.03
2024-01-15T00:53:19.166Z,-0.07
2024-01-15T00:55:45.566Z,-0.10
2024-01-15T00:58:12.042Z,-0.13
2024-01-15T01:00:38.502Z,-0.17
2024-01-15T01:03:05.163Z,-0.18
2024-01-15T01:05:31.691Z,-0.19
2024-01-15T01:07:58.104Z,-0.21
2024-01-15T01:10:24.515Z,-0.23
2024-01-15T01:12:51.116Z,-0.27
2024-01-15T01:15:17.906Z,-0.30
2024-01-15T01:17:44.551Z,-0.30
2024-01-15T01:20:11.997Z,-0.34
2024-01-15T01:22:40.306Z,-0.38
2024-01-15T01:25:07.224Z,-0.39
2024-01-15T01:27:33.769Z,-0.37
2024-01-15T01:30:00.534Z,-0.34
2024-01-15T01:32:27.028Z,-0.35
2024-01-15T01:34:53.501Z,-0.40
2024-01-15T01:37:20.115Z,-0.40
2024-01-15T01:39:46.683Z,-0.48
2024-01-15T01:42:13.596Z,-0.52
2024-01-15T01:44:40.101Z,-0.53
2024-01-15T01:47:07.156Z,-0.53
2024-01-15T01:49:34.793Z,-0.52
2024-01-15T01:52:03.559Z,-0.47
2024-01-15T01:54:32.297Z,-0.42
2024-01-15T01:56:59.407Z,-0.43
2024-01-15T01:59:29.590Z,-0.44
2024-01-15T02:01:56.424Z,-0.37
2024-01-15T02:04:27.042Z,-0.28
2024-01-15T02:06:53.706Z,-0.12
2024-01-15T02:09:20.353Z,-0.01
2024-01-15T02:11:49.948Z,0.25
2024-01-15T02:14:16.803Z,0.47
2024-01-15T02:16:43.343Z,0.76
2024-01-15T02:19:19.045Z,0.88
2024-01-15T02:21:46.059Z,0.84
2024-01-15T02:24:12.867Z,0.80
2024-01-15T02:26:39.524Z,0.77
2024-01-15T02:29:07.955Z,0.73
2024-01-15T02:31:34.420Z,0.69
2024-01-15T02:34:00.989Z,0.66
2024-01-15T02:36:27.575Z,0.71
2024-01-15T02:38:54.110Z,0.68
2024-01-15T02:41:20.503Z,0.60
2024-01-15T02:43:46.950Z,0.56
2024-01-15T02:46:13.398Z,0.54
2024-01-15T02:48:39.913Z,0.57
2024-01-15T02:51:06.497Z,0.60
2024-01-15T02:53:33.003Z,0.66
2024-01-15T02:55:59.426Z,0.66
2024-01-15T02:58:25.840Z,0.63
2024-01-15T03:00:52.328Z,0.60
2024-01-15T03:03:19.014Z,0.67
2024-01-15T03:05:45.568Z,0.68
2024-01-15T03:08:12.144Z,0.62
2024-01-15T03:10:38.580Z,0.59
2024-01-15T03:13:04.991Z,0.60
2024-01-15T03:15:31.433Z,0.65
2024-01-15T03:17:57.912Z,0.65
2024-01-15T03:20:24.328Z,0.61
2024-01-15T03:22:51.156Z,0.56
2024-01-15T03:25:17.587Z,0.51
2024-01-15T03:27:44.129Z,0.46
2024-01-15T03:30:11.278Z,0.40
2024-01-15T03:32:37.815Z,0.36
2024-01-15T03:35:04.819Z,0.33
2024-01-15T03:37:31.269Z,0.30
2024-01-15T03:39:58.065Z,0.25
2024-01-15T03:42:24.620Z,0.26
2024-01-15T03:44:51.122Z,0.34
2024-01-15T03:47:17.508Z,0.40
2024-01-15T03:49:44.057Z,0.45
2024-01-15T03:52:10.570Z,0.49
2024-01-15T03:54:37.285Z,0.50
2024-01-15T03:57:03.942Z,0.50
2024-01-15T03:59:30.358Z,0.45
2024-01-15T04:01:56.844Z,0.37
2024-01-15T04:04:23.607Z,0.24
2024-01-15T04:06:50.214Z,0.15
2024-01-15T04:09:16.910Z,0.05
2024-01-15T04:11:43.564Z,-0.02
2024-01-15T04:14:10.059Z,-0.09
2024-01-15T04:16:38.130Z,-0.12
2024-01-15T04:19:04.736Z,-0.14
2024-01-15T04:21:31.266Z,-0.16
2024-01-15T04:23:57.710Z,-0.15
2024-01-15T04:26:24.134Z,-0.16
2024-01-15T04:28:50.656Z,-0.17
2024-01-15T04:31:28.477Z,-0.21
2024-01-15T04:33:55.382Z,-0.21
2024-01-15T04:36:22.036Z,-0.22
2024-01-15T04:38:48.546Z,-0.20
2024-01-15T04:41:16.886Z,-0.18
2024-01-15T04:43:43.402Z,-0.16
2024-01-15T04:46:09.868Z,-0.16
2024-01-15T04:48:36.624Z,-0.16
2024-01-15T04:51:05.758Z,-0.19
2024-01-15T04:53:32.237Z,-0.22
2024-01-15T04:55:58.679Z,-0.21
2024-01-15T04:58:27.823Z,-0.14
2024-01-15T05:00:55.600Z,-0.03
2024-01-15T05:03:22.513Z,0.05
2024-01-15T05:05:49.211Z,0.11
2024-01-15T05:08:15.725Z,0.16
2024-01-15T05:10:42.219Z,0.16
2024-01-15T05:13:08.598Z,0.14
2024-01-15T05:15:35.090Z,0.08
2024-01-15T05:18:01.652Z,0.12
2024-01-15T05:20:28.219Z,0.16
2024-01-15T05:22:54.666Z,0.16
2024-01-15T05:25:23.933Z,0.22
2024-01-15T05:27:50.431Z,0.24
2024-01-15T05:30:17.728Z,0.27
2024-01-15T05:32:44.335Z,0.26
2024-01-15T05:35:10.765Z,0.22
2024-01-15T05:37:37.273Z,0.24
2024-01-15T05:40:05.762Z,0.28
2024-01-15T05:42:33.056Z,0.29
2024-01-15T05:45:00.772Z,0.31
2024-01-15T05:47:27.328Z,0.31
2024-01-15T05:49:54.016Z,0.30
2024-01-15T05:52:21.941Z,0.32
2024-01-15T05:54:49.146Z,0.33
2024-01-15T05:57:15.823Z,0.32
2024-01-15T05:59:42.351Z,0.35
2024-01-15T06:02:08.803Z,0.37
2024-01-15T06:04:35.428Z,0.39
2024-01-15T06:07:02.029Z,0.42
2024-01-15T06:09:29.332Z,0.40
2024-01-15T06:11:56.365Z,0.36
2024-01-15T06:14:22.802Z,0.31
2024-01-15T06:16:50.284Z,0.26
2024-01-15T06:19:16.843Z,0.17
2024-01-15T06:21:43.421Z,0.09
2024-01-15T06:24:11.138Z,0.05
2024-01-15T06:26:37.606Z,0.01
2024-01-15T06:29:04.067Z,0.01
2024-01-15T06:31:30.578Z,-0.03
2024-01-15T06:33:57.484Z,-0.02
2024-01-15T06:36:24.077Z,-0.03
2024-01-15T06:38:50.521Z,-0.02
2024-01-15T06:41:16.912Z,-0.02
2024-01-15T06:43:43.305Z,-0.02
2024-01-15T06:46:10.139Z,-0.02
2024-01-15T06:48:37.398Z,-0.04
2024-01-15T06:51:04.095Z,-0.05
2024-01-15T06:53:30.492Z,-0.09
2024-01-15T06:55:56.906Z,-0.11
2024-01-15T06:58:23.291Z,-0.14
2024-01-15T07:00:49.796Z,-0.17
2024-01-15T07:03:16.425Z,-0.18
2024-01-15T07:05:43.061Z,-0.16
2024-01-15T07:08:09.584Z,-0.14
2024-01-15T07:10:37.655Z,-0.13
2024-01-15T07:13:05.879Z,-0.10
2024-01-15T07:15:32.618Z,-0.07
2024-01-15T07:17:59.220Z,-0.02
2024-01-15T07:20:25.713Z,0.00
2024-01-15T07:22:52.086Z,-0.01
2024-01-15T07:25:18.468Z,-0.02
2024-01-15T07:27:45.884Z,-0.03
2024-01-15T07:30:13.564Z,-0.06
2024-01-15T07:32:41.706Z,-0.06
2024-01-15T07:35:08.436Z,-0.08
2024-01-15T07:37:34.829Z,-0.09
2024-01-15T07:40:01.592Z,-0.07
2024-01-15T07:42:28.327Z,-0.08
2024-01-15T07:44:54.845Z,-0.04
2024-01-15T07:47:21.445Z,-0.04
2024-01-15T07:49:48.171Z,-0.03
2024-01-15T07:52:14.812Z,-0.02
2024-01-15T07:54:41.835Z,-0.02
2024-01-15T07:57:08.325Z,0.02
2024-01-15T07:59:36.119Z,0.01
2024-01-15T08:02:02.770Z,0.01
2024-01-15T08:04:29.498Z,0.03
2024-01-15T08:06:56.128Z,0.06
2024-01-15T08:09:23.006Z,0.08
2024-01-15T08:11:52.620Z,0.08
2024-01-15T08:14:19.318Z,0.03
2024-01-15T08:16:45.704Z,-0.02
2024-01-15T08:19:12.425Z,-0.04
2024-01-15T08:21:39.163Z,-0.07
2024-01-15T08:24:06.504Z,-0.10
2024-01-15T08:26:33.537Z,-0.10
2024-01-15T08:29:00.125Z,-0.08
2024-01-15T08:31:27.076Z,-0.04
2024-01-15T08:33:53.889Z,-0.02
2024-01-15T08:36:20.529Z,0.02
2024-01-15T08:38:46.971Z,0.02
2024-01-15T08:41:14.010Z,0.01
2024-01-15T08:43:40.648Z,0.03
2024-01-15T08:46:07.331Z,0.05
2024-01-15T08:48:33.860Z,0.10
2024-01-15T08:51:00.352Z,0.20
2024-01-15T08:53:26.987Z,0.36
2024-01-15T08:55:53.495Z,0.47
2024-01-15T08:58:20.038Z,0.51
2024-01-15T09:00:46.610Z,0.51
2024-01-15T09:03:13.225Z,0.52
2024-01-15T09:05:39.969Z,0.50
2024-01-15T09:08:06.596Z,0.45
2024-01-15T09:10:33.292Z,0.48
2024-01-15T09:13:01.371Z,0.59
2024-01-15T09:15:28.765Z,0.62
2024-01-15T09:17:55.476Z,0.57
2024-01-15T09:20:22.010Z,0.52
2024-01-15T09:22:48.389Z,0.48
2024-01-15T09:25:15.052Z,0.47
2024-01-15T09:27:41.518Z,0.50
2024-01-15T09:30:09.490Z,0.47
2024-01-15T09:32:36.513Z,0.46
2024-01-15T09:35:03.234Z,0.44
2024-01-15T09:37:41.233Z,0.42
2024-01-15T09:40:15.699Z,0.57
2024-01-15T09:42:43.378Z,0.60
2024-01-15T09:45:11.116Z,1.24
2024-01-15T09:47:41.524Z,2.03
2024-01-15T09:50:10.597Z,1.83
2024-01-15T09:52:37.429Z,1.29
2024-01-15T09:55:06.381Z,0.99
2024-01-15T09:57:34.229Z,0.85
2024-01-15T10:00:02.320Z,0.76
2024-01-15T10:02:28.805Z,0.68
2024-01-15T10:04:55.875Z,0.66
2024-01-15T10:07:23.248Z,0.72
2024-01-15T10:09:49.797Z,1.12
2024-01-15T10:12:16.562Z,2.63
2024-01-15T10:14:44.464Z,3.02
2024-01-15T10:17:18.597Z,2.03
2024-01-15T10:19:50.143Z,1.52
2024-01-15T10:22:19.265Z,1.33
2024-01-15T10:24:48.203Z,1.54
2024-01-15T10:27:15.262Z,2.54
2024-01-15T10:29:43.320Z,2.13
2024-01-15T10:32:10.480Z,1.52
2024-01-15T10:34:41.863Z,1.07
2024-01-15T10:37:09.303Z,0.78
2024-01-15T10:39:36.118Z,0.59
2024-01-15T10:42:02.843Z,0.51
2024-01-15T10:44:30.249Z,0.52
2024-01-15T10:46:58.270Z,0.90
2024-01-15T10:49:31.866Z,2.75
2024-01-15T10:52:00.491Z,3.15
2024-01-15T10:54:28.893Z,2.32
2024-01-15T10:56:57.624Z,2.17
2024-01-15T10:59:24.571Z,2.76
2024-01-15T11:01:55.047Z,2.82
2024-01-15T11:04:24.131Z,2.32
2024-01-15T11:06:57.901Z,2.16
2024-01-15T11:09:25.181Z,2.01
2024-01-15T11:12:07.248Z,1.81
2024-01-15T11:14:46.874Z,1.69
2024-01-15T11:17:14.730Z,1.54
2024-01-15T11:19:46.313Z,1.50
2024-01-15T11:22:31.020Z,1.54
2024-01-15T11:25:02.338Z,1.51
2024-01-15T11:27:41.033Z,1.44
2024-01-15T11:30:10.354Z,1.50
2024-01-15T11:32:37.077Z,1.57
2024-01-15T11:35:04.891Z,1.89
2024-01-15T11:37:51.647Z,3.02
2024-01-15T11:40:22.311Z,3.54
2024-01-15T11:42:50.345Z,2.96
2024-01-15T11:45:20.385Z,2.41
2024-01-15T11:48:11.941Z,2.98
2024-01-15T11:50:48.807Z,3.10
2024-01-15T11:53:29.159Z,2.65
2024-01-15T11:55:59.851Z,2.58
2024-01-15T11:58:26.732Z,2.57
2024-01-15T12:00:54.157Z,2.50
2024-01-15T12:03:24.594Z,2.75
2024-01-15T12:05:53.387Z,3.32
2024-01-15T12:08:27.012Z,4.32
2024-01-15T12:10:54.060Z,4.28
2024-01-15T12:13:21.495Z,3.68
2024-01-15T12:15:49.605Z,2.97
2024-01-15T12:18:18.491Z,2.52
2024-01-15T12:20:50.352Z,2.14
2024-01-15T12:23:18.423Z,1.80
2024-01-15T12:25:45.312Z,1.64
2024-01-15T12:28:11.870Z,1.45
2024-01-15T12:30:39.258Z,1.44
2024-01-15T12:33:06.805Z,1.45
2024-01-15T12:35:35.066Z,1.55
2024-01-15T12:38:03.802Z,1.59
2024-01-15T12:40:33.031Z,1.59
2024-01-15T12:42:59.713Z,1.52
2024-01-15T12:45:26.745Z,1.39
2024-01-15T12:47:53.764Z,1.19
2024-01-15T12:50:21.170Z,1.03
2024-01-15T12:52:48.589Z,0.93
2024-01-15T12:55:15.638Z,0.93
2024-01-15T12:57:42.215Z,1.00
2024-01-15T13:00:14.217Z,1.11
2024-01-15T13:02:42.601Z,1.14
2024-01-15T13:05:12.265Z,1.16
2024-01-15T13:07:39.461Z,1.10
2024-01-15T13:10:06.881Z,1.03
2024-01-15T13:12:34.792Z,1.00
2024-01-15T13:15:04.478Z,1.00
2024-01-15T13:17:30.998Z,0.96
2024-01-15T13:19:57.671Z,0.94
2024-01-15T13:22:25.946Z,0.93
2024-01-15T13:24:52.667Z,0.91
2024-01-15T13:27:19.193Z,2.43
2024-01-15T13:29:45.965Z,3.37
2024-01-15T13:32:18.451Z,2.83
2024-01-15T13:34:44.907Z,2.45
2024-01-15T13:37:11.362Z,2.36
2024-01-15T13:39:37.861Z,2.32
2024-01-15T13:42:04.515Z,2.11
2024-01-15T13:44:30.993Z,1.85
2024-01-15T13:46:58.402Z,1.73
2024-01-15T13:49:25.256Z,1.75
2024-01-15T13:51:51.871Z,1.65
2024-01-15T13:54:18.390Z,1.57
2024-01-15T13:56:45.517Z,1.56
2024-01-15T13:59:11.947Z,1.48
2024-01-15T14:01:38.374Z,1.50
2024-01-15T14:04:05.137Z,1.53
2024-01-15T14:06:31.849Z,1.58
2024-01-15T14:08:58.444Z,1.54
2024-01-15T14:11:24.868Z,1.51
2024-01-15T14:13:51.329Z,1.51
2024-01-15T14:16:25.821Z,1.65
2024-01-15T14:18:52.845Z,1.75
2024-01-15T14:21:19.575Z,1.71
2024-01-15T14:23:46.011Z,1.62
2024-01-15T14:26:12.528Z,1.55
2024-01-15T14:28:39.807Z,1.56
2024-01-15T14:31:06.634Z,1.64
2024-01-15T14:33:33.886Z,1.63
2024-01-15T14:36:01.167Z,1.66
2024-01-15T14:38:27.537Z,1.66
2024-01-15T14:40:54.011Z,1.70
2024-01-15T14:43:21.110Z,1.73
2024-01-15T14:45:47.768Z,1.68
2024-01-15T14:48:14.746Z,1.55
2024-01-15T14:50:41.467Z,1.41
2024-01-15T14:53:07.873Z,1.30
2024-01-15T14:55:34.298Z,1.29
2024-01-15T14:58:00.824Z,1.31
2024-01-15T15:00:27.321Z,1.32
2024-01-15T15:02:53.868Z,1.36
2024-01-15T15:05:21.191Z,1.39
2024-01-15T15:07:47.707Z,1.30
2024-01-15T15:10:14.278Z,1.20
2024-01-15T15:12:40.769Z,1.13
2024-01-15T15:15:10.869Z,1.00
2024-01-15T15:17:40.329Z,0.93
2024-01-15T15:20:08.143Z,0.82
2024-01-15T15:22:34.731Z,0.75
2024-01-15T15:25:01.353Z,0.71
2024-01-15T15:27:28.453Z,0.69
2024-01-15T15:29:55.071Z,0.71
2024-01-15T15:32:21.630Z,0.69
2024-01-15T15:34:48.271Z,0.70
2024-01-15T15:37:17.655Z,0.71
2024-01-15T15:39:44.672Z,0.73
2024-01-15T15:42:11.325Z,0.80
2024-01-15T15:44:38.964Z,1.04
2024-01-15T15:47:05.656Z,1.10
2024-01-15T15:49:32.111Z,1.13
2024-01-15T15:51:58.637Z,1.12
2024-01-15T15:54:25.123Z,1.18
2024-01-15T15:56:54.386Z,1.23
2024-01-15T15:59:22.237Z,1.24
2024-01-15T16:01:49.415Z,1.16
2024-01-15T16:04:16.223Z,1.04
2024-01-15T16:06:43.874Z,0.95
2024-01-15T16:09:13.070Z,0.96
2024-01-15T16:11:39.582Z,0.96
2024-01-15T16:14:06.038Z,1.02
2024-01-15T16:23:11.568Z,1.07
2024-01-15T16:23:24.574Z,1.03
2024-01-15T16:23:40.166Z,0.95
2024-01-15T16:24:54.392Z,0.82
2024-01-15T16:27:22.378Z,0.74
2024-01-15T16:29:48.905Z,0.70
2024-01-15T16:32:15.452Z,0.64
2024-01-15T16:34:42.093Z,0.61
2024-01-15T16:37:10.235Z,0.58
2024-01-15T16:39:36.629Z,0.50
2024-01-15T16:42:03.609Z,0.43
2024-01-15T16:44:31.618Z,0.39
2024-01-15T16:47:03.725Z,0.35
2024-01-15T16:49:32.746Z,0.40
2024-01-15T16:51:59.445Z,0.40
2024-01-15T16:54:25.871Z,0.34
2024-01-15T16:56:52.480Z,0.29
2024-01-15T16:59:18.907Z,0.24
2024-01-15T17:01:45.926Z,0.24
2024-01-15T17:04:12.356Z,0.19
2024-01-15T17:06:38.841Z,0.17
2024-01-15T17:09:05.322Z,0.13
2024-01-15T17:11:32.790Z,0.15
2024-01-15T17:14:00.483Z,0.19
2024-01-15T17:16:26.926Z,0.31
2024-01-15T17:18:53.435Z,0.35
2024-01-15T17:21:20.307Z,0.35
2024-01-15T17:23:47.782Z,0.37
2024-01-15T17:26:14.763Z,0.42
2024-01-15T17:28:41.264Z,0.46
2024-01-15T17:31:07.732Z,0.49
2024-01-15T17:33:34.214Z,0.43
2024-01-15T17:36:01.543Z,0.47
2024-01-15T17:38:29.100Z,0.49
2024-01-15T17:40:55.557Z,0.50
2024-01-15T17:43:21.947Z,0.56
2024-01-15T17:45:49.477Z,0.62
2024-01-15T17:48:16.031Z,0.63
2024-01-15T17:50:42.595Z,0.62
2024-01-15T17:53:10.284Z,0.57
2024-01-15T17:55:36.816Z,0.50
2024-01-15T17:58:03.933Z,0.42
2024-01-15T18:00:30.305Z,0.32
2024-01-15T18:02:56.804Z,0.32
2024-01-15T18:05:23.245Z,0.32
2024-01-15T18:07:49.778Z,0.37
2024-01-15T18:10:16.239Z,0.36
2024-01-15T18:12:42.740Z,0.33
2024-01-15T18:15:09.555Z,0.34
2024-01-15T18:17:36.387Z,0.42
2024-01-15T18:20:04.145Z,0.48
2024-01-15T18:22:30.963Z,0.51
2024-01-15T18:24:57.398Z,0.51
2024-01-15T18:27:23.815Z,0.48
2024-01-15T18:29:50.202Z,0.46
2024-01-15T18:32:16.646Z,0.48
2024-01-15T18:34:44.090Z,0.47
2024-01-15T18:37:11.190Z,0.48
2024-01-15T18:39:37.646Z,0.50
2024-01-15T18:42:04.503Z,0.53
2024-01-15T18:44:31.173Z,0.55
2024-01-15T18:46:58.669Z,0.64
2024-01-15T18:49:25.254Z,0.69
2024-01-15T18:51:54.401Z,0.69
2024-01-15T18:54:21.437Z,0.72
2024-01-15T18:56:47.939Z,0.70
2024-01-15T18:59:14.588Z,0.68
2024-01-15T19:01:41.199Z,0.64
2024-01-15T19:04:08.356Z,0.57
2024-01-15T19:06:34.896Z,0.55
2024-01-15T19:09:01.407Z,0.55
2024-01-15T19:11:28.272Z,0.56
2024-01-15T19:13:54.824Z,0.57
2024-01-15T19:16:24.228Z,0.56
2024-01-15T19:18:51.923Z,0.54
2024-01-15T19:21:18.446Z,0.51
2024-01-15T19:23:45.079Z,0.48
2024-01-15T19:26:21.469Z,0.42
2024-01-15T19:28:48.656Z,0.36
2024-01-15T19:31:15.241Z,0.29
2024-01-15T19:33:43.796Z,0.23
2024-01-15T19:36:22.019Z,0.17
2024-01-15T19:38:48.508Z,0.13
2024-01-15T19:41:15.376Z,0.10
2024-01-15T19:43:41.901Z,0.09
2024-01-15T19:46:09.596Z,0.13
2024-01-15T19:48:40.137Z,0.15
2024-01-15T19:51:07.075Z,0.18
2024-01-15T19:53:33.504Z,0.19
2024-01-15T19:55:59.982Z,0.21
2024-01-15T19:58:26.383Z,0.20
2024-01-15T20:00:53.090Z,0.18
2024-01-15T20:03:19.570Z,0.18
2024-01-15T20:05:46.082Z,0.10
2024-01-15T20:08:12.630Z,0.04
2024-01-15T20:10:39.799Z,0.00
2024-01-15T20:13:06.202Z,-0.11
2024-01-15T20:15:36.161Z,-0.17
2024-01-15T20:18:02.966Z,-0.18
2024-01-15T20:20:29.543Z,-0.23
2024-01-15T20:22:57.127Z,-0.29
2024-01-15T20:25:23.553Z,-0.28
2024-01-15T20:27:50.315Z,-0.29
2024-01-15T20:30:17.312Z,-0.31
2024-01-15T20:32:43.843Z,-0.39
2024-01-15T20:35:10.377Z,-0.41
2024-01-15T20:37:36.982Z,-0.34
2024-01-15T20:40:06.013Z,-0.36
2024-01-15T20:42:32.684Z,-0.36
2024-01-15T20:44:59.179Z,-0.38
2024-01-15T20:47:25.705Z,-0.42
2024-01-15T20:49:52.222Z,-0.43
2024-01-15T20:52:19.700Z,-0.50
2024-01-15T20:54:46.548Z,-0.55
2024-01-15T20:57:13.038Z,-0.56
2024-01-15T20:59:39.539Z,-0.59
2024-01-15T21:02:06.430Z,-0.59
2024-01-15T21:04:32.910Z,-0.61
2024-01-15T21:07:00.067Z,-0.63
2024-01-15T21:09:26.568Z,-0.64
2024-01-15T21:11:53.312Z,-0.66
2024-01-15T21:14:19.887Z,-0.67
2024-01-15T21:16:47.587Z,-0.69
2024-01-15T21:19:14.047Z,-0.68
2024-01-15T21:21:40.445Z,-0.68
2024-01-15T21:24:07.032Z,-0.68
2024-01-15T21:26:33.598Z,-0.69
2024-01-15T21:29:00.565Z,-0.73
2024-01-15T21:31:27.022Z,-0.75
2024-01-15T21:33:53.416Z,-0.79
2024-01-15T21:36:19.871Z,-0.77
2024-01-15T21:38:46.347Z,-0.76
2024-01-15T21:41:14.056Z,-0.78
2024-01-15T21:43:42.177Z,-0.79
2024-01-15T21:46:08.758Z,-0.79
2024-01-15T21:48:35.343Z,-0.77
2024-01-15T21:51:01.885Z,-0.80
2024-01-15T21:53:28.417Z,-0.84
2024-01-15T21:55:54.944Z,-0.87
2024-01-15T21:58:21.477Z,-0.90
2024-01-15T22:00:47.987Z,-0.93
2024-01-15T22:03:14.811Z,-0.95
2024-01-15T22:05:42.757Z,-0.97
2024-01-15T22:08:10.249Z,-0.95
2024-01-15T22:10:36.853Z,-0.96
2024-01-15T22:13:03.284Z,-0.96
2024-01-15T22:15:29.690Z,-0.90
2024-01-15T22:17:56.646Z,-0.89
2024-01-15T22:20:23.224Z,-0.88
2024-01-15T22:22:49.954Z,-0.85
2024-01-15T22:25:16.463Z,-0.87
2024-01-15T22:27:42.944Z,-0.90
2024-01-15T22:30:11.493Z,-0.92
2024-01-15T22:32:38.040Z,-0.92
2024-01-15T22:35:05.232Z,-0.94
2024-01-15T22:37:32.460Z,-1.01
2024-01-15T22:39:59.550Z,-1.08
2024-01-15T22:42:26.434Z,-1.13
2024-01-15T22:44:53.129Z,-1.11
2024-01-15T22:47:19.709Z,-1.09
2024-01-15T22:49:46.206Z,-1.16
2024-01-15T22:52:12.687Z,-1.21
2024-01-15T22:54:39.178Z,-1.25
2024-01-15T22:57:05.646Z,-1.22
2024-01-15T22:59:32.171Z,-1.12
2024-01-15T23:01:58.579Z,-0.95
2024-01-15T23:04:24.981Z,-0.83
2024-01-15T23:06:51.417Z,-0.64
2024-01-15T23:09:17.845Z,-0.52
2024-01-15T23:11:48.249Z,-0.50
2024-01-15T23:14:14.976Z,-0.57
2024-01-15T23:16:43.554Z,-0.60
2024-01-15T23:19:10.402Z,-0.63
2024-01-15T23:21:36.985Z,-0.66
2024-01-15T23:24:03.561Z,-0.70
2024-01-15T23:26:29.999Z,-0.75
2024-01-15T23:28:56.486Z,-0.83
2024-01-15T23:31:22.866Z,-0.88
2024-01-15T23:33:49.834Z,-0.92
2024-01-15T23:36:16.459Z,-0.94
2024-01-15T23:38:42.889Z,-0.94
2024-01-15T23:41:10.733Z,-0.96
2024-01-15T23:43:39.459Z,-0.97
2024-01-15T23:46:14.042Z,-1.03
2024-01-15T23:48:41.810Z,-1.03
2024-01-15T23:51:09.744Z,-1.02
2024-01-15T23:53:36.215Z,-1.02
2024-01-15T23:56:02.762Z,-1.07
2024-01-15T23:58:29.185Z,-1.16
